sensor_id;sensor_type;location;lat;lon;timestamp;temperature;humidity
11087;DHT22;5597;47.588;9.642;2023-03-01T00:00:52;0.20;99.90
11087;DHT22;5597;47.588;9.642;2023-03-01T00:03:17;0.20;99.90
11087;DHT22;5597;47.588;9.642;2023-03-01T00:05:44;0.20;99.90
11087;DHT22;5597;47.588;9.642;2023-03-01T00:08:10;0.20;99.90
11087;DHT22;5597;47.588;9.642;2023-03-01T00:10:36;0.20;99.90
11087;DHT22;5597;47.588;9.642;2023-03-01T00:13:02;0.20;99.90
11087;DHT22;5597;47.588;9.642;2023-03-01T00:15:27;0.20;99.90
11087;DHT22;5597;47.588;9.642;2023-03-01T00:17:53;0.20;99.90
11087;DHT22;5597;47.588;9.642;2023-03-01T00:20:19;0.20;99.90
11087;DHT22;5597;47.588;9.642;2023-03-01T00:22:44;0.20;99.90
11087;DHT22;5597;47.588;9.642;2023-03-01T00:25:10;0.20;99.90
11087;DHT22;5597;47.588;9.642;2023-03-01T00:27:35;0.20;99.90
11087;DHT22;5597;47.588;9.642;2023-03-01T00:30:01;0.20;99.90
11087;DHT22;5597;47.588;9.642;2023-03-01T00:32:26;0.20;99.90
11087;DHT22;5597;47.588;9.642;2023-03-01T00:34:52;0.20;99.90
11087;DHT22;5597;47.588;9.642;2023-03-01T00:37:24;0.20;99.90
11087;DHT22;5597;47.588;9.642;2023-03-01T00:39:49;0.30;99.90
11087;DHT22;5597;47.588;9.642;2023-03-01T00:42:16;0.30;99.90
11087;DHT22;5597;47.588;9.642;2023-03-01T00:44:42;0.30;99.90
11087;DHT22;5597;47.588;9.642;2023-03-01T00:47:08;0.40;99.90
11087;DHT22;5597;47.588;9.642;2023-03-01T00:49:33;0.40;99.90
11087;DHT22;5597;47.588;9.642;2023-03-01T00:51:59;0.40;99.90
11087;DHT22;5597;47.588;9.642;2023-03-01T00:54:25;0.40;99.90
11087;DHT22;5597;47.588;9.642;2023-03-01T00:56:50;0.40;99.90
11087;DHT22;5597;47.588;9.642;2023-03-01T00:59:16;0.50;99.90
11087;DHT22;5597;47.588;9.642;2023-03-01T01:01:41;0.40;99.90
11087;DHT22;5597;47.588;9.642;2023-03-01T01:04:10;0.50;99.90
11087;DHT22;5597;47.588;9.642;2023-03-01T01:06:44;0.50;99.90
11087;DHT22;5597;47.588;9.642;2023-03-01T01:09:12;0.50;99.90
11087;DHT22;5597;47.588;9.642;2023-03-01T01:11:49;0.50;99.90
11087;DHT22;5597;47.588;9.642;2023-03-01T01:14:16;0.50;99.90
11087;DHT22;5597;47.588;9.642;2023-03-01T01:16:42;0.50;99.90
11087;DHT22;5597;47.588;9.642;2023-03-01T01:19:09;0.50;99.90
11087;DHT22;5597;47.588;9.642;2023-03-01T01:21:35;0.50;99.90
11087;DHT22;5597;47.588;9.642;2023-03-01T01:24:03;0.50;99.90
11087;DHT22;5597;47.588;9.642;2023-03-01T01:26:30;0.50;99.90
11087;DHT22;5597;47.588;9.642;2023-03-01T01:28:57;0.60;99.90
11087;DHT22;5597;47.588;9.642;2023-03-01T01:31:23;0.60;99.90
11087;DHT22;5597;47.588;9.642;2023-03-01T01:33:50;0.50;99.90
11087;DHT22;5597;47.588;9.642;2023-03-01T01:36:16;0.60;99.90
11087;DHT22;5597;47.588;9.642;2023-03-01T01:38:42;0.60;99.90
11087;DHT22;5597;47.588;9.642;2023-03-01T01:41:08;0.60;99.90
11087;DHT22;5597;47.588;9.642;2023-03-01T01:43:40;0.60;99.90
11087;DHT22;5597;47.588;9.642;2023-03-01T01:46:26;0.60;99.90
11087;DHT22;5597;47.588;9.642;2023-03-01T01:48:57;0.60;99.90
11087;DHT22;5597;47.588;9.642;2023-03-01T01:51:28;0.60;99.90
11087;DHT22;5597;47.588;9.642;2023-03-01T01:54:00;0.60;99.90
11087;DHT22;5597;47.588;9.642;2023-03-01T01:56:27;0.60;99.90
11087;DHT22;5597;47.588;9.642;2023-03-01T01:58:54;0.60;99.90
11087;DHT22;5597;47.588;9.642;2023-03-01T02:01:20;0.70;99.90
11087;DHT22;5597;47.588;9.642;2023-03-01T02:03:46;0.70;99.90
11087;DHT22;5597;47.588;9.642;2023-03-01T02:06:31;0.70;99.90
11087;DHT22;5597;47.588;9.642;2023-03-01T02:09:03;0.70;99.90
11087;DHT22;5597;47.588;9.642;2023-03-01T02:11:31;0.70;99.90
11087;DHT22;5597;47.588;9.642;2023-03-01T02:13:57;0.70;99.90
11087;DHT22;5597;47.588;9.642;2023-03-01T02:16:23;0.80;99.90
11087;DHT22;5597;47.588;9.642;2023-03-01T02:18:50;0.70;99.90
11087;DHT22;5597;47.588;9.642;2023-03-01T02:23:57;0.70;99.90
11087;DHT22;5597;47.588;9.642;2023-03-01T02:26:56;0.70;99.90
11087;DHT22;5597;47.588;9.642;2023-03-01T02:29:23;0.70;99.90
11087;DHT22;5597;47.588;9.642;2023-03-01T02:31:51;0.70;99.90
11087;DHT22;5597;47.588;9.642;2023-03-01T02:34:23;0.70;99.90
11087;DHT22;5597;47.588;9.642;2023-03-01T02:37:09;0.70;99.90
11087;DHT22;5597;47.588;9.642;2023-03-01T02:39:41;0.70;99.90
11087;DHT22;5597;47.588;9.642;2023-03-01T02:42:12;0.70;99.90
11087;DHT22;5597;47.588;9.642;2023-03-01T02:44:38;0.70;99.90
11087;DHT22;5597;47.588;9.642;2023-03-01T02:47:04;0.70;99.90
11087;DHT22;5597;47.588;9.642;2023-03-01T02:49:33;0.70;99.90
11087;DHT22;5597;47.588;9.642;2023-03-01T02:54:41;0.70;99.90
11087;DHT22;5597;47.588;9.642;2023-03-01T02:57:09;0.80;99.90
11087;DHT22;5597;47.588;9.642;2023-03-01T02:59:37;0.80;99.90
11087;DHT22;5597;47.588;9.642;2023-03-01T03:02:22;0.70;99.90
11087;DHT22;5597;47.588;9.642;2023-03-01T03:05:03;0.70;99.90
11087;DHT22;5597;47.588;9.642;2023-03-01T03:07:32;0.70;99.90
11087;DHT22;5597;47.588;9.642;2023-03-01T03:09:58;0.70;99.90
11087;DHT22;5597;47.588;9.642;2023-03-01T03:12:24;0.80;99.90
11087;DHT22;5597;47.588;9.642;2023-03-01T03:14:49;0.80;99.90
11087;DHT22;5597;47.588;9.642;2023-03-01T03:17:15;0.70;99.90
11087;DHT22;5597;47.588;9.642;2023-03-01T03:19:40;0.80;99.90
11087;DHT22;5597;47.588;9.642;2023-03-01T03:22:06;0.80;99.90
11087;DHT22;5597;47.588;9.642;2023-03-01T03:24:34;0.80;99.90
11087;DHT22;5597;47.588;9.642;2023-03-01T03:27:04;0.80;99.90
11087;DHT22;5597;47.588;9.642;2023-03-01T03:29:30;0.80;99.90
11087;DHT22;5597;47.588;9.642;2023-03-01T03:31:56;0.80;99.90
11087;DHT22;5597;47.588;9.642;2023-03-01T03:34:22;0.80;99.90
11087;DHT22;5597;47.588;9.642;2023-03-01T03:36:47;0.80;99.90
11087;DHT22;5597;47.588;9.642;2023-03-01T03:39:13;0.80;99.90
11087;DHT22;5597;47.588;9.642;2023-03-01T03:41:38;0.80;99.90
11087;DHT22;5597;47.588;9.642;2023-03-01T03:44:04;0.80;99.90
11087;DHT22;5597;47.588;9.642;2023-03-01T03:46:29;0.80;99.90
11087;DHT22;5597;47.588;9.642;2023-03-01T03:48:55;0.80;99.90
11087;DHT22;5597;47.588;9.642;2023-03-01T03:51:21;0.80;99.90
11087;DHT22;5597;47.588;9.642;2023-03-01T03:53:48;0.80;99.90
11087;DHT22;5597;47.588;9.642;2023-03-01T03:56:13;0.80;99.90
11087;DHT22;5597;47.588;9.642;2023-03-01T03:58:39;0.80;99.90
11087;DHT22;5597;47.588;9.642;2023-03-01T04:01:05;0.80;99.90
11087;DHT22;5597;47.588;9.642;2023-03-01T04:03:32;0.80;99.90
11087;DHT22;5597;47.588;9.642;2023-03-01T04:05:58;0.80;99.90
11087;DHT22;5597;47.588;9.642;2023-03-01T04:08:25;0.80;99.90
11087;DHT22;5597;47.588;9.642;2023-03-01T04:10:53;0.80;99.90
11087;DHT22;5597;47.588;9.642;2023-03-01T04:13:22;0.80;99.90
11087;DHT22;5597;47.588;9.642;2023-03-01T04:15:51;0.80;99.90
11087;DHT22;5597;47.588;9.642;2023-03-01T04:18:18;0.80;99.90
11087;DHT22;5597;47.588;9.642;2023-03-01T04:20:45;0.80;99.90
11087;DHT22;5597;47.588;9.642;2023-03-01T04:23:20;0.80;99.90
11087;DHT22;5597;47.588;9.642;2023-03-01T04:25:52;0.80;99.90
11087;DHT22;5597;47.588;9.642;2023-03-01T04:30:51;0.80;99.90
11087;DHT22;5597;47.588;9.642;2023-03-01T04:33:17;0.80;99.90
11087;DHT22;5597;47.588;9.642;2023-03-01T04:35:43;0.80;99.90
11087;DHT22;5597;47.588;9.642;2023-03-01T04:38:09;0.80;99.90
11087;DHT22;5597;47.588;9.642;2023-03-01T04:40:35;0.90;99.90
11087;DHT22;5597;47.588;9.642;2023-03-01T04:43:01;0.80;99.90
11087;DHT22;5597;47.588;9.642;2023-03-01T04:45:26;0.90;99.90
11087;DHT22;5597;47.588;9.642;2023-03-01T04:47:53;0.80;99.90
11087;DHT22;5597;47.588;9.642;2023-03-01T04:50:19;0.80;99.90
11087;DHT22;5597;47.588;9.642;2023-03-01T04:52:49;0.90;99.90
11087;DHT22;5597;47.588;9.642;2023-03-01T04:55:14;0.90;99.90
11087;DHT22;5597;47.588;9.642;2023-03-01T04:57:40;0.90;99.90
11087;DHT22;5597;47.588;9.642;2023-03-01T05:00:08;0.90;99.90
11087;DHT22;5597;47.588;9.642;2023-03-01T05:02:49;0.90;99.90
11087;DHT22;5597;47.588;9.642;2023-03-01T05:05:22;0.90;99.90
11087;DHT22;5597;47.588;9.642;2023-03-01T05:08:00;0.90;99.90
11087;DHT22;5597;47.588;9.642;2023-03-01T05:10:28;0.90;99.90
11087;DHT22;5597;47.588;9.642;2023-03-01T05:12:55;0.90;99.90
11087;DHT22;5597;47.588;9.642;2023-03-01T05:15:23;0.90;99.90
11087;DHT22;5597;47.588;9.642;2023-03-01T05:17:51;0.90;99.90
11087;DHT22;5597;47.588;9.642;2023-03-01T05:20:17;0.90;99.90
11087;DHT22;5597;47.588;9.642;2023-03-01T05:22:43;0.90;99.90
11087;DHT22;5597;47.588;9.642;2023-03-01T05:25:09;0.80;99.90
11087;DHT22;5597;47.588;9.642;2023-03-01T05:27:35;0.90;99.90
11087;DHT22;5597;47.588;9.642;2023-03-01T05:30:02;0.90;99.90
11087;DHT22;5597;47.588;9.642;2023-03-01T05:32:40;0.90;99.90
11087;DHT22;5597;47.588;9.642;2023-03-01T05:35:06;0.90;99.90
11087;DHT22;5597;47.588;9.642;2023-03-01T05:37:32;0.90;99.90
11087;DHT22;5597;47.588;9.642;2023-03-01T05:39:57;0.90;99.90
11087;DHT22;5597;47.588;9.642;2023-03-01T05:42:23;0.80;99.90
11087;DHT22;5597;47.588;9.642;2023-03-01T05:44:48;0.80;99.90
11087;DHT22;5597;47.588;9.642;2023-03-01T05:47:14;0.80;99.90
11087;DHT22;5597;47.588;9.642;2023-03-01T05:49:39;0.90;99.90
11087;DHT22;5597;47.588;9.642;2023-03-01T05:52:05;0.90;99.90
11087;DHT22;5597;47.588;9.642;2023-03-01T05:54:31;0.90;99.90
11087;DHT22;5597;47.588;9.642;2023-03-01T05:56:56;0.80;99.90
11087;DHT22;5597;47.588;9.642;2023-03-01T05:59:22;0.90;99.90
11087;DHT22;5597;47.588;9.642;2023-03-01T06:01:47;0.90;99.90
11087;DHT22;5597;47.588;9.642;2023-03-01T06:04:13;0.90;99.90
11087;DHT22;5597;47.588;9.642;2023-03-01T06:06:38;0.80;99.90
11087;DHT22;5597;47.588;9.642;2023-03-01T06:09:05;0.80;99.90
11087;DHT22;5597;47.588;9.642;2023-03-01T06:11:34;0.80;99.90
11087;DHT22;5597;47.588;9.642;2023-03-01T06:14:00;0.90;99.90
11087;DHT22;5597;47.588;9.642;2023-03-01T06:16:25;0.90;99.90
11087;DHT22;5597;47.588;9.642;2023-03-01T06:18:51;0.90;99.90
11087;DHT22;5597;47.588;9.642;2023-03-01T06:21:16;0.90;99.90
11087;DHT22;5597;47.588;9.642;2023-03-01T06:23:42;0.90;99.90
11087;DHT22;5597;47.588;9.642;2023-03-01T06:26:08;0.90;99.90
11087;DHT22;5597;47.588;9.642;2023-03-01T06:28:35;0.90;99.90
11087;DHT22;5597;47.588;9.642;2023-03-01T06:31:01;0.90;99.90
11087;DHT22;5597;47.588;9.642;2023-03-01T06:33:26;0.90;99.90
11087;DHT22;5597;47.588;9.642;2023-03-01T06:35:54;0.90;99.90
11087;DHT22;5597;47.588;9.642;2023-03-01T06:38:20;0.90;99.90
11087;DHT22;5597;47.588;9.642;2023-03-01T06:40:52;0.90;99.90
11087;DHT22;5597;47.588;9.642;2023-03-01T06:43:18;0.90;99.90
11087;DHT22;5597;47.588;9.642;2023-03-01T06:45:43;0.90;99.90
11087;DHT22;5597;47.588;9.642;2023-03-01T06:48:09;0.90;99.90
11087;DHT22;5597;47.588;9.642;2023-03-01T06:50:35;0.90;99.90
11087;DHT22;5597;47.588;9.642;2023-03-01T06:53:02;0.90;99.90
11087;DHT22;5597;47.588;9.642;2023-03-01T06:55:28;0.90;99.90
11087;DHT22;5597;47.588;9.642;2023-03-01T06:57:55;0.90;99.90
11087;DHT22;5597;47.588;9.642;2023-03-01T07:00:22;0.90;99.90
11087;DHT22;5597;47.588;9.642;2023-03-01T07:02:47;0.90;99.90
11087;DHT22;5597;47.588;9.642;2023-03-01T07:05:13;1.00;99.90
11087;DHT22;5597;47.588;9.642;2023-03-01T07:07:38;0.90;99.90
11087;DHT22;5597;47.588;9.642;2023-03-01T07:10:04;0.90;99.90
11087;DHT22;5597;47.588;9.642;2023-03-01T07:12:30;0.90;99.90
11087;DHT22;5597;47.588;9.642;2023-03-01T07:14:56;0.90;99.90
11087;DHT22;5597;47.588;9.642;2023-03-01T07:17:21;1.00;99.90
11087;DHT22;5597;47.588;9.642;2023-03-01T07:19:47;1.00;99.90
11087;DHT22;5597;47.588;9.642;2023-03-01T07:22:12;1.00;99.90
11087;DHT22;5597;47.588;9.642;2023-03-01T07:24:38;1.00;99.90
11087;DHT22;5597;47.588;9.642;2023-03-01T07:27:03;1.00;99.90
11087;DHT22;5597;47.588;9.642;2023-03-01T07:29:29;1.00;99.90
11087;DHT22;5597;47.588;9.642;2023-03-01T07:31:55;1.10;99.90
11087;DHT22;5597;47.588;9.642;2023-03-01T07:34:21;1.10;99.90
11087;DHT22;5597;47.588;9.642;2023-03-01T07:36:46;1.10;99.90
11087;DHT22;5597;47.588;9.642;2023-03-01T07:39:12;1.10;99.90
11087;DHT22;5597;47.588;9.642;2023-03-01T07:41:38;1.10;99.90
11087;DHT22;5597;47.588;9.642;2023-03-01T07:44:03;1.20;99.90
11087;DHT22;5597;47.588;9.642;2023-03-01T07:46:29;1.20;99.90
11087;DHT22;5597;47.588;9.642;2023-03-01T07:48:55;1.20;99.90
11087;DHT22;5597;47.588;9.642;2023-03-01T07:51:20;1.20;99.90
11087;DHT22;5597;47.588;9.642;2023-03-01T07:53:47;1.20;99.90
11087;DHT22;5597;47.588;9.642;2023-03-01T07:56:14;1.20;99.90
11087;DHT22;5597;47.588;9.642;2023-03-01T07:58:42;1.20;99.90
11087;DHT22;5597;47.588;9.642;2023-03-01T08:01:09;1.20;99.90
11087;DHT22;5597;47.588;9.642;2023-03-01T08:03:36;1.30;99.90
11087;DHT22;5597;47.588;9.642;2023-03-01T08:06:04;1.30;99.90
11087;DHT22;5597;47.588;9.642;2023-03-01T08:08:30;1.30;99.90
11087;DHT22;5597;47.588;9.642;2023-03-01T08:10:57;1.30;99.90
11087;DHT22;5597;47.588;9.642;2023-03-01T08:13:23;1.30;99.90
11087;DHT22;5597;47.588;9.642;2023-03-01T08:15:49;1.40;99.90
11087;DHT22;5597;47.588;9.642;2023-03-01T08:18:19;1.40;99.90
11087;DHT22;5597;47.588;9.642;2023-03-01T08:20:45;1.40;99.90
11087;DHT22;5597;47.588;9.642;2023-03-01T08:23:10;1.40;99.90
11087;DHT22;5597;47.588;9.642;2023-03-01T08:25:36;1.40;99.90
11087;DHT22;5597;47.588;9.642;2023-03-01T08:28:03;1.40;99.90
11087;DHT22;5597;47.588;9.642;2023-03-01T08:30:29;1.50;99.90
11087;DHT22;5597;47.588;9.642;2023-03-01T08:32:54;1.50;99.90
11087;DHT22;5597;47.588;9.642;2023-03-01T08:35:20;1.50;99.90
11087;DHT22;5597;47.588;9.642;2023-03-01T08:37:46;1.60;99.90
11087;DHT22;5597;47.588;9.642;2023-03-01T08:40:12;1.60;99.90
11087;DHT22;5597;47.588;9.642;2023-03-01T08:42:39;1.60;99.90
11087;DHT22;5597;47.588;9.642;2023-03-01T08:45:06;1.60;99.90
11087;DHT22;5597;47.588;9.642;2023-03-01T08:47:32;1.70;99.90
11087;DHT22;5597;47.588;9.642;2023-03-01T08:49:59;1.70;99.90
11087;DHT22;5597;47.588;9.642;2023-03-01T08:52:25;1.70;99.90
11087;DHT22;5597;47.588;9.642;2023-03-01T08:54:51;1.80;99.90
11087;DHT22;5597;47.588;9.642;2023-03-01T08:57:17;1.80;99.90
11087;DHT22;5597;47.588;9.642;2023-03-01T08:59:43;1.80;99.90
11087;DHT22;5597;47.588;9.642;2023-03-01T09:02:13;1.80;99.90
11087;DHT22;5597;47.588;9.642;2023-03-01T09:04:40;1.80;99.90
11087;DHT22;5597;47.588;9.642;2023-03-01T09:07:06;1.80;99.90
11087;DHT22;5597;47.588;9.642;2023-03-01T09:09:32;1.80;99.90
11087;DHT22;5597;47.588;9.642;2023-03-01T09:11:58;1.80;99.90
11087;DHT22;5597;47.588;9.642;2023-03-01T09:14:23;1.70;99.90
11087;DHT22;5597;47.588;9.642;2023-03-01T09:16:49;1.80;99.90
11087;DHT22;5597;47.588;9.642;2023-03-01T09:19:15;1.80;99.90
11087;DHT22;5597;47.588;9.642;2023-03-01T09:21:41;1.70;99.90
11087;DHT22;5597;47.588;9.642;2023-03-01T09:24:19;1.70;99.90
11087;DHT22;5597;47.588;9.642;2023-03-01T09:26:46;1.70;99.90
11087;DHT22;5597;47.588;9.642;2023-03-01T09:29:12;1.70;99.90
11087;DHT22;5597;47.588;9.642;2023-03-01T09:31:38;1.80;99.90
11087;DHT22;5597;47.588;9.642;2023-03-01T09:34:04;1.80;99.90
11087;DHT22;5597;47.588;9.642;2023-03-01T09:36:30;1.80;99.90
11087;DHT22;5597;47.588;9.642;2023-03-01T09:38:57;1.80;99.90
11087;DHT22;5597;47.588;9.642;2023-03-01T09:41:44;1.80;99.90
11087;DHT22;5597;47.588;9.642;2023-03-01T09:47:03;1.80;99.90
11087;DHT22;5597;47.588;9.642;2023-03-01T09:49:37;1.90;99.90
11087;DHT22;5597;47.588;9.642;2023-03-01T09:54:55;2.00;99.90
11087;DHT22;5597;47.588;9.642;2023-03-01T10:02:51;2.00;99.90
11087;DHT22;5597;47.588;9.642;2023-03-01T10:05:38;2.10;99.90
11087;DHT22;5597;47.588;9.642;2023-03-01T10:10:48;2.20;99.90
11087;DHT22;5597;47.588;9.642;2023-03-01T10:13:33;2.20;99.90
11087;DHT22;5597;47.588;9.642;2023-03-01T10:16:05;2.30;99.90
11087;DHT22;5597;47.588;9.642;2023-03-01T10:18:35;2.40;99.90
11087;DHT22;5597;47.588;9.642;2023-03-01T10:21:14;2.40;99.90
11087;DHT22;5597;47.588;9.642;2023-03-01T10:23:40;2.40;99.90
11087;DHT22;5597;47.588;9.642;2023-03-01T10:29:08;2.50;99.90
11087;DHT22;5597;47.588;9.642;2023-03-01T10:31:45;2.60;99.90
11087;DHT22;5597;47.588;9.642;2023-03-01T10:34:20;2.60;99.90
11087;DHT22;5597;47.588;9.642;2023-03-01T10:36:51;2.70;99.90
11087;DHT22;5597;47.588;9.642;2023-03-01T10:39:24;2.70;99.90
11087;DHT22;5597;47.588;9.642;2023-03-01T10:41:59;2.80;99.90
11087;DHT22;5597;47.588;9.642;2023-03-01T10:44:40;2.80;99.90
11087;DHT22;5597;47.588;9.642;2023-03-01T10:47:32;2.80;99.90
11087;DHT22;5597;47.588;9.642;2023-03-01T10:49:59;2.70;99.90
11087;DHT22;5597;47.588;9.642;2023-03-01T10:52:28;2.70;99.90
11087;DHT22;5597;47.588;9.642;2023-03-01T10:55:24;2.70;99.90
11087;DHT22;5597;47.588;9.642;2023-03-01T10:57:52;2.90;99.90
11087;DHT22;5597;47.588;9.642;2023-03-01T11:00:31;2.90;99.90
11087;DHT22;5597;47.588;9.642;2023-03-01T11:05:26;3.00;99.90
11087;DHT22;5597;47.588;9.642;2023-03-01T11:07:54;3.10;99.90
11087;DHT22;5597;47.588;9.642;2023-03-01T11:10:27;3.10;99.90
11087;DHT22;5597;47.588;9.642;2023-03-01T11:12:53;3.10;99.90
11087;DHT22;5597;47.588;9.642;2023-03-01T11:15:30;3.10;99.90
11087;DHT22;5597;47.588;9.642;2023-03-01T11:17:56;3.10;99.90
11087;DHT22;5597;47.588;9.642;2023-03-01T11:20:35;3.20;99.90
11087;DHT22;5597;47.588;9.642;2023-03-01T11:23:10;3.20;99.90
11087;DHT22;5597;47.588;9.642;2023-03-01T11:25:40;3.10;99.90
11087;DHT22;5597;47.588;9.642;2023-03-01T11:28:12;3.10;99.90
11087;DHT22;5597;47.588;9.642;2023-03-01T11:30:45;3.10;99.90
11087;DHT22;5597;47.588;9.642;2023-03-01T11:33:33;3.00;99.90
11087;DHT22;5597;47.588;9.642;2023-03-01T11:36:04;2.90;99.90
11087;DHT22;5597;47.588;9.642;2023-03-01T11:38:34;2.80;99.90
11087;DHT22;5597;47.588;9.642;2023-03-01T11:46:32;2.70;99.90
11087;DHT22;5597;47.588;9.642;2023-03-01T11:49:04;2.70;99.90
11087;DHT22;5597;47.588;9.642;2023-03-01T11:57:40;2.80;99.90
11087;DHT22;5597;47.588;9.642;2023-03-01T12:08:36;2.80;99.90
11087;DHT22;5597;47.588;9.642;2023-03-01T12:14:29;2.80;99.90
11087;DHT22;5597;47.588;9.642;2023-03-01T12:26:20;2.90;99.90
11087;DHT22;5597;47.588;9.642;2023-03-01T12:34:01;2.90;99.90
11087;DHT22;5597;47.588;9.642;2023-03-01T12:36:49;2.90;99.90
11087;DHT22;5597;47.588;9.642;2023-03-01T12:39:50;2.90;99.90
11087;DHT22;5597;47.588;9.642;2023-03-01T12:48:36;2.80;99.90
11087;DHT22;5597;47.588;9.642;2023-03-01T12:51:08;2.80;99.90
11087;DHT22;5597;47.588;9.642;2023-03-01T12:53:46;2.90;99.90
11087;DHT22;5597;47.588;9.642;2023-03-01T12:56:16;3.00;99.90
11087;DHT22;5597;47.588;9.642;2023-03-01T12:59:11;3.00;99.90
11087;DHT22;5597;47.588;9.642;2023-03-01T13:01:51;3.00;99.90
11087;DHT22;5597;47.588;9.642;2023-03-01T13:12:00;3.20;99.90
11087;DHT22;5597;47.588;9.642;2023-03-01T13:16:52;3.30;99.90
11087;DHT22;5597;47.588;9.642;2023-03-01T13:19:22;3.30;99.90
11087;DHT22;5597;47.588;9.642;2023-03-01T13:21:51;3.30;99.90
11087;DHT22;5597;47.588;9.642;2023-03-01T13:24:40;3.30;99.90
11087;DHT22;5597;47.588;9.642;2023-03-01T13:29:53;3.20;99.90
11087;DHT22;5597;47.588;9.642;2023-03-01T13:32:29;3.20;99.90
11087;DHT22;5597;47.588;9.642;2023-03-01T13:35:40;3.20;99.90
11087;DHT22;5597;47.588;9.642;2023-03-01T13:41:03;3.20;99.90
11087;DHT22;5597;47.588;9.642;2023-03-01T13:43:31;3.20;99.90
11087;DHT22;5597;47.588;9.642;2023-03-01T13:45:57;3.20;99.90
11087;DHT22;5597;47.588;9.642;2023-03-01T13:48:29;3.20;99.90
11087;DHT22;5597;47.588;9.642;2023-03-01T13:51:03;3.30;99.90
11087;DHT22;5597;47.588;9.642;2023-03-01T13:53:31;3.30;99.90
11087;DHT22;5597;47.588;9.642;2023-03-01T13:56:02;3.30;99.90
11087;DHT22;5597;47.588;9.642;2023-03-01T13:58:33;3.30;99.90
11087;DHT22;5597;47.588;9.642;2023-03-01T14:01:28;3.40;99.90
11087;DHT22;5597;47.588;9.642;2023-03-01T14:03:54;3.40;99.90
11087;DHT22;5597;47.588;9.642;2023-03-01T14:06:33;3.50;99.90
11087;DHT22;5597;47.588;9.642;2023-03-01T14:09:16;3.50;99.90
11087;DHT22;5597;47.588;9.642;2023-03-01T14:17:18;3.80;99.90
11087;DHT22;5597;47.588;9.642;2023-03-01T14:19:47;3.70;99.90
11087;DHT22;5597;47.588;9.642;2023-03-01T14:22:25;3.70;99.90
11087;DHT22;5597;47.588;9.642;2023-03-01T14:24:59;3.70;99.90
11087;DHT22;5597;47.588;9.642;2023-03-01T14:27:37;3.80;99.90
11087;DHT22;5597;47.588;9.642;2023-03-01T14:30:16;3.80;99.90
11087;DHT22;5597;47.588;9.642;2023-03-01T14:32:55;3.80;99.90
11087;DHT22;5597;47.588;9.642;2023-03-01T14:35:24;3.90;99.90
11087;DHT22;5597;47.588;9.642;2023-03-01T14:37:50;3.80;99.90
11087;DHT22;5597;47.588;9.642;2023-03-01T14:42:51;3.60;99.90
11087;DHT22;5597;47.588;9.642;2023-03-01T14:45:18;3.60;99.90
11087;DHT22;5597;47.588;9.642;2023-03-01T14:47:44;3.60;99.90
11087;DHT22;5597;47.588;9.642;2023-03-01T14:50:28;3.60;99.90
11087;DHT22;5597;47.588;9.642;2023-03-01T14:52:58;3.50;99.90
11087;DHT22;5597;47.588;9.642;2023-03-01T14:55:36;3.50;99.90
11087;DHT22;5597;47.588;9.642;2023-03-01T14:58:09;3.50;99.90
11087;DHT22;5597;47.588;9.642;2023-03-01T15:00:37;3.50;99.90
11087;DHT22;5597;47.588;9.642;2023-03-01T15:03:14;3.50;99.90
11087;DHT22;5597;47.588;9.642;2023-03-01T15:05:43;3.40;99.90
11087;DHT22;5597;47.588;9.642;2023-03-01T15:08:20;3.40;99.90
11087;DHT22;5597;47.588;9.642;2023-03-01T15:11:02;3.40;99.90
11087;DHT22;5597;47.588;9.642;2023-03-01T15:13:33;3.50;99.90
11087;DHT22;5597;47.588;9.642;2023-03-01T15:16:12;3.50;99.90
11087;DHT22;5597;47.588;9.642;2023-03-01T15:19:03;3.50;99.90
11087;DHT22;5597;47.588;9.642;2023-03-01T15:21:34;3.50;99.90
11087;DHT22;5597;47.588;9.642;2023-03-01T15:24:18;3.40;99.90
11087;DHT22;5597;47.588;9.642;2023-03-01T15:26:56;3.30;99.90
11087;DHT22;5597;47.588;9.642;2023-03-01T15:29:28;3.20;99.90
11087;DHT22;5597;47.588;9.642;2023-03-01T15:32:03;3.20;99.90
11087;DHT22;5597;47.588;9.642;2023-03-01T15:34:37;3.10;99.90
11087;DHT22;5597;47.588;9.642;2023-03-01T15:37:06;3.10;99.90
11087;DHT22;5597;47.588;9.642;2023-03-01T15:45:11;3.10;99.90
11087;DHT22;5597;47.588;9.642;2023-03-01T15:50:19;3.00;99.90
11087;DHT22;5597;47.588;9.642;2023-03-01T15:52:46;2.90;99.90
11087;DHT22;5597;47.588;9.642;2023-03-01T15:55:23;2.90;99.90
11087;DHT22;5597;47.588;9.642;2023-03-01T15:57:50;2.90;99.90
11087;DHT22;5597;47.588;9.642;2023-03-01T16:00:23;2.90;99.90
11087;DHT22;5597;47.588;9.642;2023-03-01T16:02:48;2.80;99.90
11087;DHT22;5597;47.588;9.642;2023-03-01T16:05:25;2.80;99.90
11087;DHT22;5597;47.588;9.642;2023-03-01T16:07:52;2.80;99.90
11087;DHT22;5597;47.588;9.642;2023-03-01T16:10:18;2.80;99.90
11087;DHT22;5597;47.588;9.642;2023-03-01T16:12:44;2.80;99.90
11087;DHT22;5597;47.588;9.642;2023-03-01T16:15:19;2.70;99.90
11087;DHT22;5597;47.588;9.642;2023-03-01T16:17:45;2.70;99.90
11087;DHT22;5597;47.588;9.642;2023-03-01T16:20:11;2.70;99.90
11087;DHT22;5597;47.588;9.642;2023-03-01T16:22:37;2.70;99.90
11087;DHT22;5597;47.588;9.642;2023-03-01T16:25:03;2.70;99.90
11087;DHT22;5597;47.588;9.642;2023-03-01T16:27:28;2.60;99.90
11087;DHT22;5597;47.588;9.642;2023-03-01T16:29:54;2.60;99.90
11087;DHT22;5597;47.588;9.642;2023-03-01T16:32:20;2.60;99.90
11087;DHT22;5597;47.588;9.642;2023-03-01T16:34:45;2.60;99.90
11087;DHT22;5597;47.588;9.642;2023-03-01T16:37:14;2.60;99.90
11087;DHT22;5597;47.588;9.642;2023-03-01T16:39:40;2.50;99.90
11087;DHT22;5597;47.588;9.642;2023-03-01T16:42:05;2.50;99.90
11087;DHT22;5597;47.588;9.642;2023-03-01T16:44:31;2.50;99.90
11087;DHT22;5597;47.588;9.642;2023-03-01T16:46:57;2.50;99.90
11087;DHT22;5597;47.588;9.642;2023-03-01T16:49:22;2.50;99.90
11087;DHT22;5597;47.588;9.642;2023-03-01T16:51:48;2.40;99.90
11087;DHT22;5597;47.588;9.642;2023-03-01T16:54:13;2.40;99.90
11087;DHT22;5597;47.588;9.642;2023-03-01T16:56:39;2.40;99.90
11087;DHT22;5597;47.588;9.642;2023-03-01T16:59:05;2.40;99.90
11087;DHT22;5597;47.588;9.642;2023-03-01T17:01:31;2.40;99.90
11087;DHT22;5597;47.588;9.642;2023-03-01T17:04:03;2.30;99.90
11087;DHT22;5597;47.588;9.642;2023-03-01T17:06:28;2.30;99.90
11087;DHT22;5597;47.588;9.642;2023-03-01T17:08:54;2.30;99.90
11087;DHT22;5597;47.588;9.642;2023-03-01T17:11:20;2.30;99.90
11087;DHT22;5597;47.588;9.642;2023-03-01T17:13:46;2.30;99.90
11087;DHT22;5597;47.588;9.642;2023-03-01T17:16:17;2.30;99.90
11087;DHT22;5597;47.588;9.642;2023-03-01T17:18:43;2.30;99.90
11087;DHT22;5597;47.588;9.642;2023-03-01T17:21:09;2.30;99.90
11087;DHT22;5597;47.588;9.642;2023-03-01T17:23:36;2.30;99.90
11087;DHT22;5597;47.588;9.642;2023-03-01T17:26:02;2.20;99.90
11087;DHT22;5597;47.588;9.642;2023-03-01T17:28:30;2.20;99.90
11087;DHT22;5597;47.588;9.642;2023-03-01T17:30:58;2.30;99.90
11087;DHT22;5597;47.588;9.642;2023-03-01T17:33:24;2.20;99.90
11087;DHT22;5597;47.588;9.642;2023-03-01T17:35:50;2.30;99.90
11087;DHT22;5597;47.588;9.642;2023-03-01T17:38:16;2.20;99.90
11087;DHT22;5597;47.588;9.642;2023-03-01T17:40:43;2.30;99.90
11087;DHT22;5597;47.588;9.642;2023-03-01T17:43:14;2.20;99.90
11087;DHT22;5597;47.588;9.642;2023-03-01T17:45:39;2.20;99.90
11087;DHT22;5597;47.588;9.642;2023-03-01T17:48:06;2.20;99.90
11087;DHT22;5597;47.588;9.642;2023-03-01T17:50:37;2.20;99.90
11087;DHT22;5597;47.588;9.642;2023-03-01T17:53:05;2.20;99.90
11087;DHT22;5597;47.588;9.642;2023-03-01T17:55:38;2.20;99.90
11087;DHT22;5597;47.588;9.642;2023-03-01T17:58:05;2.20;99.90